createdAt,value
2019-01-29T00:00:06.285Z,0.00
2019-01-29T00:01:06.266Z,0.00
2019-01-29T00:02:06.255Z,0.00
2019-01-29T00:03:06.228Z,0.00
2019-01-29T00:04:06.232Z,0.00
2019-01-29T00:05:06.279Z,0.00
2019-01-29T00:06:06.207Z,0.00
2019-01-29T00:07:06.187Z,0.00
2019-01-29T00:08:06.179Z,0.00
2019-01-29T00:09:06.179Z,0.00
2019-01-29T00:10:06.156Z,0.00
2019-01-29T00:11:06.151Z,0.00
2019-01-29T00:12:06.154Z,0.00
2019-01-29T00:13:06.118Z,0.00
2019-01-29T00:14:06.112Z,0.00
2019-01-29T00:15:06.098Z,0.00
2019-01-29T00:16:06.127Z,0.00
2019-01-29T00:17:06.099Z,0.00
2019-01-29T00:18:06.073Z,0.00
2019-01-29T00:19:06.067Z,0.00
2019-01-29T00:20:06.049Z,0.00
2019-01-29T00:21:06.050Z,0.00
2019-01-29T00:22:06.052Z,0.00
2019-01-29T00:23:06.029Z,0.00
2019-01-29T00:24:06.011Z,0.00
2019-01-29T00:25:05.995Z,0.00
2019-01-29T00:26:05.992Z,0.00
2019-01-29T00:27:05.980Z,0.00
2019-01-29T00:28:05.959Z,0.00
2019-01-29T00:29:05.947Z,0.00
2019-01-29T00:30:05.936Z,0.00
2019-01-29T00:31:05.930Z,0.00
2019-01-29T00:32:05.934Z,0.00
2019-01-29T00:33:05.907Z,0.00
2019-01-29T00:34:05.891Z,0.00
2019-01-29T00:35:05.888Z,0.00
2019-01-29T00:36:05.868Z,0.00
2019-01-29T00:37:05.900Z,0.00
2019-01-29T00:38:05.855Z,0.00
2019-01-29T00:39:05.840Z,0.00
2019-01-29T00:40:05.823Z,0.00
2019-01-29T00:41:05.820Z,0.00
2019-01-29T00:42:05.811Z,0.00
2019-01-29T00:43:05.815Z,0.00
2019-01-29T00:44:05.796Z,0.00
2019-01-29T00:45:05.774Z,0.00
2019-01-29T00:46:05.759Z,0.00
2019-01-29T00:47:05.750Z,0.00
2019-01-29T00:48:05.765Z,0.00
2019-01-29T00:49:05.748Z,0.00
2019-01-29T00:50:05.724Z,0.00
2019-01-29T00:51:05.721Z,0.00
2019-01-29T00:52:05.695Z,0.00
2019-01-29T00:53:05.705Z,0.00
2019-01-29T00:54:05.679Z,0.00
2019-01-29T00:55:05.665Z,0.00
2019-01-29T00:56:05.655Z,0.00
2019-01-29T00:57:05.645Z,0.00
2019-01-29T00:58:05.651Z,0.00
2019-01-29T00:59:05.621Z,0.00
2019-01-29T01:00:05.610Z,0.00
2019-01-29T01:01:05.599Z,0.00
2019-01-29T01:02:05.595Z,0.00
2019-01-29T01:03:05.919Z,0.00
2019-01-29T01:04:05.561Z,0.00
2019-01-29T01:05:05.556Z,0.00
2019-01-29T01:06:05.542Z,0.00
2019-01-29T01:07:05.541Z,0.00
2019-01-29T01:08:05.539Z,0.00
2019-01-29T01:09:05.527Z,0.00
2019-01-29T01:10:05.495Z,0.00
2019-01-29T01:11:05.489Z,0.00
2019-01-29T01:12:05.475Z,0.00
2019-01-29T01:13:05.473Z,0.00
2019-01-29T01:14:05.477Z,0.00
2019-01-29T01:15:05.447Z,0.00
2019-01-29T01:16:05.430Z,0.00
2019-01-29T01:17:05.423Z,0.00
2019-01-29T01:18:05.414Z,0.00
2019-01-29T01:19:05.419Z,0.00
2019-01-29T01:20:05.383Z,0.00
2019-01-29T01:21:05.374Z,0.00
2019-01-29T01:22:05.373Z,0.00
2019-01-29T01:23:05.360Z,0.00
2019-01-29T01:24:05.385Z,0.00
2019-01-29T01:25:05.334Z,0.00
2019-01-29T01:26:05.327Z,0.00
2019-01-29T01:27:05.319Z,0.00
2019-01-29T01:28:05.304Z,0.00
2019-01-29T01:29:05.290Z,0.00
2019-01-29T01:30:05.286Z,0.00
2019-01-29T01:31:05.269Z,0.00
2019-01-29T01:32:05.257Z,0.00
2019-01-29T01:33:05.246Z,0.00
2019-01-29T01:34:05.229Z,0.00
2019-01-29T01:35:05.239Z,0.00
2019-01-29T01:36:05.222Z,0.00
2019-01-29T01:37:05.206Z,0.00
2019-01-29T01:38:05.197Z,0.00
2019-01-29T01:39:05.212Z,0.00
2019-01-29T01:40:05.192Z,0.00
2019-01-29T01:41:05.165Z,0.00
2019-01-29T01:42:05.149Z,0.00
2019-01-29T01:43:05.129Z,0.00
2019-01-29T01:44:05.118Z,0.00
2019-01-29T01:45:05.136Z,0.00
2019-01-29T01:46:05.106Z,0.00
2019-01-29T01:47:05.090Z,0.00
2019-01-29T01:48:05.076Z,0.00
2019-01-29T01:49:05.070Z,0.00
2019-01-29T01:50:05.088Z,0.00
2019-01-29T01:51:05.048Z,0.00
2019-01-29T01:52:05.044Z,0.00
2019-01-29T01:53:05.028Z,0.00
2019-01-29T01:54:05.017Z,0.00
2019-01-29T01:55:04.995Z,0.00
2019-01-29T01:56:05.001Z,0.00
2019-01-29T01:57:05.009Z,0.00
2019-01-29T01:58:04.982Z,0.00
2019-01-29T01:59:04.956Z,0.00
2019-01-29T02:00:04.964Z,0.00
2019-01-29T02:01:04.952Z,0.00
2019-01-29T02:02:04.924Z,0.00
2019-01-29T02:03:04.918Z,0.00
2019-01-29T02:04:04.902Z,0.00
2019-01-29T02:05:04.897Z,0.00
2019-01-29T02:06:04.901Z,0.00
2019-01-29T02:07:04.869Z,0.00
2019-01-29T02:08:04.869Z,0.00
2019-01-29T02:09:04.853Z,0.00
2019-01-29T02:10:04.838Z,0.00
2019-01-29T02:11:04.861Z,0.00
2019-01-29T02:12:04.889Z,0.00
2019-01-29T02:13:04.807Z,0.00
2019-01-29T02:14:04.795Z,0.00
2019-01-29T02:15:04.795Z,0.00
2019-01-29T02:16:04.796Z,0.00
2019-01-29T02:17:04.779Z,0.00
2019-01-29T02:18:04.772Z,0.00
2019-01-29T02:19:04.735Z,0.00
2019-01-29T02:20:04.731Z,0.00
2019-01-29T02:21:04.718Z,0.00
2019-01-29T02:22:04.739Z,0.00
2019-01-29T02:23:08.142Z,0.00
2019-01-29T02:24:04.683Z,0.00
2019-01-29T02:25:04.676Z,0.00
2019-01-29T02:26:04.673Z,0.00
2019-01-29T02:27:04.669Z,0.00
2019-01-29T02:28:04.639Z,0.00
2019-01-29T02:29:04.635Z,0.00
2019-01-29T02:30:04.614Z,0.00
2019-01-29T02:31:04.615Z,0.00
2019-01-29T02:32:04.618Z,0.00
2019-01-29T02:33:04.581Z,0.00
2019-01-29T02:34:04.569Z,0.00
2019-01-29T02:35:04.572Z,0.00
2019-01-29T02:36:04.552Z,0.00
2019-01-29T02:37:04.575Z,0.00
2019-01-29T02:38:04.535Z,0.00
2019-01-29T02:39:04.520Z,0.00
2019-01-29T02:40:04.504Z,0.00
2019-01-29T02:41:04.506Z,0.00
2019-01-29T02:42:04.505Z,0.00
2019-01-29T02:43:04.488Z,0.00
2019-01-29T02:44:04.462Z,0.00
2019-01-29T02:45:04.454Z,0.00
2019-01-29T02:46:04.442Z,0.00
2019-01-29T02:47:04.436Z,0.00
2019-01-29T02:48:04.436Z,0.00
2019-01-29T02:49:04.412Z,0.00
2019-01-29T02:50:04.402Z,0.00
2019-01-29T02:51:04.385Z,0.00
2019-01-29T02:52:04.374Z,0.00
2019-01-29T02:53:04.385Z,0.00
2019-01-29T02:54:04.352Z,0.00
2019-01-29T02:55:04.346Z,0.00
2019-01-29T02:56:04.336Z,0.00
2019-01-29T02:57:04.319Z,0.00
2019-01-29T02:58:04.341Z,0.00
2019-01-29T02:59:04.316Z,0.00
2019-01-29T03:00:04.317Z,0.00
2019-01-29T03:01:04.286Z,0.00
2019-01-29T03:02:04.270Z,0.00
2019-01-29T03:03:04.273Z,0.00
2019-01-29T03:04:04.250Z,0.00
2019-01-29T03:05:04.246Z,0.00
2019-01-29T03:06:04.237Z,0.00
2019-01-29T03:07:04.222Z,0.00
2019-01-29T03:08:04.220Z,0.00
2019-01-29T03:09:04.203Z,0.00
2019-01-29T03:10:04.180Z,0.00
2019-01-29T03:11:04.166Z,0.00
2019-01-29T03:12:04.164Z,0.00
2019-01-29T03:13:04.168Z,0.00
2019-01-29T03:14:04.136Z,0.00
2019-01-29T03:15:04.123Z,0.00
2019-01-29T03:16:04.117Z,0.00
2019-01-29T03:17:04.099Z,0.00
2019-01-29T03:18:04.099Z,0.00
2019-01-29T03:19:04.084Z,0.00
2019-01-29T03:20:04.075Z,0.00
2019-01-29T03:21:04.070Z,0.00
2019-01-29T03:22:04.063Z,0.00
2019-01-29T03:23:04.054Z,0.00
2019-01-29T03:24:04.033Z,0.00
2019-01-29T03:25:04.037Z,0.00
2019-01-29T03:26:04.015Z,0.00
2019-01-29T03:27:03.991Z,0.00
2019-01-29T03:28:03.991Z,0.00
2019-01-29T03:29:03.980Z,0.00
2019-01-29T03:30:03.956Z,0.00
2019-01-29T03:31:03.954Z,0.00
2019-01-29T03:32:03.947Z,0.00
2019-01-29T03:33:03.964Z,0.00
2019-01-29T03:34:03.928Z,0.00
2019-01-29T03:35:03.907Z,0.00
2019-01-29T03:36:03.887Z,0.00
2019-01-29T03:37:03.884Z,0.00
2019-01-29T03:38:03.867Z,0.00
2019-01-29T03:39:03.917Z,0.00
2019-01-29T03:40:03.865Z,0.00
2019-01-29T03:41:03.840Z,0.00
2019-01-29T03:42:03.830Z,0.00
2019-01-29T03:43:03.828Z,0.00
2019-01-29T03:44:03.831Z,0.00
2019-01-29T03:45:03.809Z,0.00
2019-01-29T03:46:03.785Z,0.00
2019-01-29T03:47:03.773Z,0.00
2019-01-29T03:48:03.765Z,0.00
2019-01-29T03:49:03.763Z,0.00
2019-01-29T03:50:03.751Z,0.00
2019-01-29T03:51:03.733Z,0.00
2019-01-29T03:52:03.732Z,0.00
2019-01-29T03:53:03.710Z,0.00
2019-01-29T03:54:03.717Z,0.00
2019-01-29T03:55:03.689Z,0.00
2019-01-29T03:56:03.689Z,0.00
2019-01-29T03:57:03.670Z,0.00
2019-01-29T03:58:03.660Z,0.00
2019-01-29T03:59:03.664Z,0.00
2019-01-29T04:00:03.640Z,0.00
2019-01-29T04:01:03.640Z,0.00
2019-01-29T04:02:03.604Z,0.00
2019-01-29T04:03:03.608Z,0.00
2019-01-29T04:04:03.614Z,0.00
2019-01-29T04:05:03.592Z,0.00
2019-01-29T04:06:03.562Z,0.00
2019-01-29T04:07:03.558Z,0.00
2019-01-29T04:08:03.544Z,0.00
2019-01-29T04:09:03.534Z,0.00
2019-01-29T04:10:03.534Z,0.00
2019-01-29T04:11:03.517Z,0.00
2019-01-29T04:12:03.508Z,0.00
2019-01-29T04:13:03.501Z,0.00
2019-01-29T04:14:03.488Z,0.00
2019-01-29T04:15:03.476Z,0.00
2019-01-29T04:16:03.479Z,0.00
2019-01-29T04:17:03.445Z,0.00
2019-01-29T04:18:03.433Z,0.00
2019-01-29T04:19:03.436Z,0.00
2019-01-29T04:20:03.424Z,0.00
2019-01-29T04:21:03.412Z,0.00
2019-01-29T04:22:03.390Z,0.00
2019-01-29T04:23:03.394Z,0.00
2019-01-29T04:24:03.369Z,0.00
2019-01-29T04:25:03.380Z,0.00
2019-01-29T04:26:03.348Z,0.00
2019-01-29T04:27:03.341Z,0.00
2019-01-29T04:28:03.332Z,0.00
2019-01-29T04:29:03.350Z,0.00
2019-01-29T04:30:03.318Z,0.00
2019-01-29T04:31:03.301Z,0.00
2019-01-29T04:32:03.299Z,0.00
2019-01-29T04:33:03.269Z,0.00
2019-01-29T04:34:03.268Z,0.00
2019-01-29T04:35:03.266Z,0.00
2019-01-29T04:36:03.231Z,0.00
2019-01-29T04:37:03.223Z,0.00
2019-01-29T04:38:03.216Z,0.00
2019-01-29T04:39:03.207Z,0.00
2019-01-29T04:40:03.214Z,0.00
2019-01-29T04:41:03.197Z,0.00
2019-01-29T04:42:03.172Z,0.00
2019-01-29T04:43:03.155Z,0.00
2019-01-29T04:44:03.153Z,0.00
2019-01-29T04:45:03.152Z,0.00
2019-01-29T04:46:03.142Z,0.00
2019-01-29T04:47:03.121Z,0.00
2019-01-29T04:48:03.104Z,0.00
2019-01-29T04:49:03.089Z,0.00
2019-01-29T04:50:03.112Z,0.00
2019-01-29T04:51:03.069Z,0.00
2019-01-29T04:52:03.069Z,0.00
2019-01-29T04:53:03.050Z,0.00
2019-01-29T04:54:03.036Z,0.00
2019-01-29T04:55:03.042Z,0.00
2019-01-29T04:56:03.015Z,0.00
2019-01-29T04:57:02.998Z,0.00
2019-01-29T04:58:02.994Z,0.00
2019-01-29T04:59:02.985Z,0.00
2019-01-29T05:00:03.039Z,0.00
2019-01-29T05:01:02.966Z,0.00
2019-01-29T05:02:02.962Z,0.00
2019-01-29T05:03:02.948Z,0.00
2019-01-29T05:04:02.942Z,0.00
2019-01-29T05:05:02.925Z,0.00
2019-01-29T05:06:02.918Z,0.00
2019-01-29T05:07:02.916Z,0.00
2019-01-29T05:08:02.888Z,0.00
2019-01-29T05:09:02.875Z,0.00
2019-01-29T05:10:02.863Z,0.00
2019-01-29T05:11:02.880Z,0.00
2019-01-29T05:12:02.848Z,0.00
2019-01-29T05:13:02.824Z,0.00
2019-01-29T05:14:02.818Z,0.00
2019-01-29T05:15:02.812Z,0.00
2019-01-29T05:16:02.820Z,0.00
2019-01-29T05:17:02.785Z,0.00
2019-01-29T05:18:02.800Z,0.00
2019-01-29T05:19:02.761Z,0.00
2019-01-29T05:20:02.758Z,0.00
2019-01-29T05:21:02.757Z,0.00
2019-01-29T05:22:02.724Z,0.00
2019-01-29T05:23:02.731Z,0.00
2019-01-29T05:24:07.072Z,0.00
2019-01-29T05:25:02.717Z,0.00
2019-01-29T05:26:02.707Z,0.00
2019-01-29T05:27:02.677Z,0.00
2019-01-29T05:28:02.666Z,0.00
2019-01-29T05:29:02.651Z,0.00
2019-01-29T05:30:02.645Z,0.00
2019-01-29T05:31:02.659Z,0.00
2019-01-29T05:32:02.636Z,0.00
2019-01-29T05:33:02.606Z,0.00
2019-01-29T05:34:02.628Z,0.00
2019-01-29T05:35:02.604Z,0.00
2019-01-29T05:36:02.602Z,0.00
2019-01-29T05:37:02.588Z,0.00
2019-01-29T05:38:04.129Z,0.00
2019-01-29T05:39:04.512Z,0.00
2019-01-29T05:40:02.533Z,0.00
2019-01-29T05:41:02.568Z,0.00
2019-01-29T05:42:02.510Z,0.00
2019-01-29T05:43:02.546Z,0.00
2019-01-29T05:44:02.510Z,0.00
2019-01-29T05:45:02.487Z,0.00
2019-01-29T05:46:02.479Z,0.00
2019-01-29T05:47:02.474Z,0.00
2019-01-29T05:48:02.460Z,0.00
2019-01-29T05:49:02.461Z,0.00
2019-01-29T05:50:02.445Z,0.00
2019-01-29T05:51:02.436Z,0.00
2019-01-29T05:52:02.423Z,0.00
2019-01-29T05:53:02.406Z,0.00
2019-01-29T05:54:02.390Z,0.00
2019-01-29T05:55:02.375Z,0.00
2019-01-29T05:56:02.362Z,0.00
2019-01-29T05:57:02.362Z,0.00
2019-01-29T05:58:02.338Z,0.00
2019-01-29T05:59:02.359Z,0.00
2019-01-29T06:00:02.319Z,0.00
2019-01-29T06:01:02.311Z,0.00
2019-01-29T06:02:02.315Z,0.00
2019-01-29T06:03:02.296Z,0.00
2019-01-29T06:04:02.273Z,0.00
2019-01-29T06:05:02.276Z,0.00
2019-01-29T06:06:02.256Z,0.00
2019-01-29T06:07:02.277Z,0.00
2019-01-29T06:08:02.241Z,0.00
2019-01-29T06:09:02.244Z,0.00
2019-01-29T06:10:02.250Z,0.00
2019-01-29T06:11:02.201Z,0.00
2019-01-29T06:12:02.213Z,0.00
2019-01-29T06:13:02.189Z,0.00
2019-01-29T06:14:02.178Z,0.00
2019-01-29T06:15:02.163Z,0.00
2019-01-29T06:16:02.151Z,0.00
2019-01-29T06:17:02.147Z,0.00
2019-01-29T06:18:02.124Z,0.00
2019-01-29T06:19:02.110Z,0.00
2019-01-29T06:20:02.101Z,0.00
2019-01-29T06:21:02.104Z,0.00
2019-01-29T06:22:02.092Z,0.00
2019-01-29T06:23:02.085Z,0.00
2019-01-29T06:24:02.052Z,0.00
2019-01-29T06:25:02.058Z,0.00
2019-01-29T06:26:02.040Z,0.00
2019-01-29T06:27:02.043Z,0.00
2019-01-29T06:28:02.013Z,0.00
2019-01-29T06:29:01.998Z,0.00
2019-01-29T06:30:02.003Z,0.00
2019-01-29T06:31:01.984Z,0.00
2019-01-29T06:32:01.988Z,0.00
2019-01-29T06:33:01.959Z,0.00
2019-01-29T06:34:01.951Z,0.00
2019-01-29T06:35:01.942Z,0.00
2019-01-29T06:36:01.932Z,0.00
2019-01-29T06:37:01.958Z,0.00
2019-01-29T06:38:01.926Z,0.00
2019-01-29T06:39:01.946Z,0.00
2019-01-29T06:40:01.888Z,0.00
2019-01-29T06:41:01.875Z,0.00
2019-01-29T06:42:01.867Z,0.00
2019-01-29T06:43:01.856Z,0.00
2019-01-29T06:44:01.840Z,0.00
2019-01-29T06:45:01.832Z,0.00
2019-01-29T06:46:01.855Z,0.00
2019-01-29T06:47:01.808Z,0.00
2019-01-29T06:48:01.808Z,0.00
2019-01-29T06:49:01.832Z,0.00
2019-01-29T06:50:01.938Z,0.00
2019-01-29T06:51:01.764Z,0.00
2019-01-29T06:52:01.755Z,0.00
2019-01-29T06:53:01.746Z,0.00
2019-01-29T06:54:01.724Z,0.00
2019-01-29T06:55:01.710Z,0.00
2019-01-29T06:56:01.720Z,0.00
2019-01-29T06:57:01.715Z,0.00
2019-01-29T06:58:01.707Z,0.00
2019-01-29T06:59:01.670Z,0.00
2019-01-29T07:00:01.682Z,0.00
2019-01-29T07:01:01.660Z,0.00
2019-01-29T07:02:01.641Z,0.00
2019-01-29T07:03:01.648Z,0.00
2019-01-29T07:04:01.619Z,0.00
2019-01-29T07:05:01.608Z,0.00
2019-01-29T07:06:01.594Z,0.00
2019-01-29T07:07:01.590Z,0.00
2019-01-29T07:08:01.588Z,0.00
2019-01-29T07:09:01.566Z,0.00
2019-01-29T07:10:01.553Z,0.00
2019-01-29T07:11:01.548Z,0.00
2019-01-29T07:12:01.524Z,0.00
2019-01-29T07:13:01.551Z,0.00
2019-01-29T07:14:01.514Z,0.00
2019-01-29T07:15:01.507Z,0.00
2019-01-29T07:16:01.498Z,0.00
2019-01-29T07:17:01.481Z,0.00
2019-01-29T07:18:01.499Z,0.00
2019-01-29T07:19:01.464Z,0.00
2019-01-29T07:20:01.443Z,0.00
2019-01-29T07:21:01.434Z,0.00
2019-01-29T07:22:01.451Z,0.00
2019-01-29T07:23:01.423Z,0.00
2019-01-29T07:24:01.421Z,0.00
2019-01-29T07:25:01.387Z,0.00
2019-01-29T07:26:01.375Z,0.00
2019-01-29T07:27:01.368Z,0.00
2019-01-29T07:28:01.352Z,0.00
2019-01-29T07:29:01.355Z,0.00
2019-01-29T07:30:01.331Z,0.00
2019-01-29T07:31:01.323Z,0.00
2019-01-29T07:32:01.314Z,0.00
2019-01-29T07:33:01.301Z,0.00
2019-01-29T07:34:01.297Z,0.00
2019-01-29T07:35:01.279Z,0.00
2019-01-29T07:36:01.280Z,0.00
2019-01-29T07:37:01.273Z,5.62
2019-01-29T07:38:01.257Z,5.62
2019-01-29T07:39:01.257Z,5.62
2019-01-29T07:40:01.272Z,5.62
2019-01-29T07:41:01.223Z,5.62
2019-01-29T07:42:01.191Z,5.62
2019-01-29T07:43:01.197Z,5.62
2019-01-29T07:44:01.209Z,5.62
2019-01-29T07:45:01.198Z,5.62
2019-01-29T07:46:01.163Z,5.62
2019-01-29T07:47:01.157Z,5.62
2019-01-29T07:48:01.136Z,11.25
2019-01-29T07:49:01.146Z,11.25
2019-01-29T07:50:01.121Z,11.25
2019-01-29T07:51:01.135Z,11.25
2019-01-29T07:52:01.103Z,11.25
2019-01-29T07:53:01.101Z,11.25
2019-01-29T07:54:01.104Z,11.25
2019-01-29T07:55:01.060Z,11.25
2019-01-29T07:56:01.062Z,11.25
2019-01-29T07:57:01.060Z,11.25
2019-01-29T07:58:01.030Z,11.25
2019-01-29T07:59:01.030Z,11.25
2019-01-29T08:00:01.045Z,11.25
2019-01-29T08:01:01.001Z,5.62
2019-01-29T08:02:01.007Z,11.25
2019-01-29T08:03:00.980Z,11.25
2019-01-29T08:04:00.991Z,11.25
2019-01-29T08:05:00.968Z,16.88
2019-01-29T08:06:00.950Z,16.88
2019-01-29T08:07:00.928Z,16.88
2019-01-29T08:08:01.000Z,16.88
2019-01-29T08:09:00.908Z,11.25
2019-01-29T08:10:00.909Z,11.25
2019-01-29T08:11:00.891Z,11.25
2019-01-29T08:12:00.871Z,5.62
2019-01-29T08:13:00.929Z,5.62
2019-01-29T08:14:00.855Z,5.62
2019-01-29T08:15:00.882Z,5.62
2019-01-29T08:16:00.833Z,5.62
2019-01-29T08:17:00.820Z,5.62
2019-01-29T08:18:00.805Z,5.62
2019-01-29T08:19:00.897Z,5.62
2019-01-29T08:20:00.809Z,5.62
2019-01-29T08:21:00.788Z,5.62
2019-01-29T08:22:00.766Z,5.62
2019-01-29T08:23:00.748Z,11.25
2019-01-29T08:24:00.753Z,11.25
2019-01-29T08:25:01.764Z,11.25
2019-01-29T08:26:00.731Z,11.25
2019-01-29T08:27:00.734Z,11.25
2019-01-29T08:28:00.709Z,11.25
2019-01-29T08:29:00.679Z,5.62
2019-01-29T08:30:00.706Z,11.25
2019-01-29T08:31:00.669Z,11.25
2019-01-29T08:32:00.660Z,11.25
2019-01-29T08:33:00.648Z,16.88
2019-01-29T08:34:00.637Z,16.88
2019-01-29T08:35:00.676Z,11.25
2019-01-29T08:36:00.618Z,11.25
2019-01-29T08:37:00.740Z,11.25
2019-01-29T08:38:00.696Z,11.25
2019-01-29T08:39:00.605Z,11.25
2019-01-29T08:40:00.584Z,5.62
2019-01-29T08:41:00.561Z,5.62
2019-01-29T08:42:00.623Z,5.62
2019-01-29T08:43:00.538Z,11.25
2019-01-29T08:44:00.517Z,5.62
2019-01-29T08:45:00.515Z,5.62
2019-01-29T08:46:00.531Z,11.25
2019-01-29T08:47:00.495Z,11.25
2019-01-29T08:48:00.485Z,5.62
2019-01-29T08:49:00.537Z,11.25
2019-01-29T08:50:00.461Z,11.25
2019-01-29T08:51:00.459Z,11.25
2019-01-29T08:52:00.431Z,11.25
2019-01-29T08:53:00.434Z,11.25
2019-01-29T08:54:00.416Z,11.25
2019-01-29T08:55:00.415Z,11.25
2019-01-29T08:56:00.409Z,16.88
2019-01-29T08:57:00.382Z,22.50
2019-01-29T08:58:00.443Z,16.88
2019-01-29T08:59:00.355Z,28.12
2019-01-29T09:00:00.453Z,22.50
2019-01-29T09:01:00.350Z,22.50
2019-01-29T09:02:00.326Z,16.88
2019-01-29T09:03:00.312Z,16.88
2019-01-29T09:04:00.307Z,22.50
2019-01-29T09:05:00.304Z,16.88
2019-01-29T09:06:00.299Z,11.25
2019-01-29T09:07:00.263Z,16.88
2019-01-29T09:08:00.271Z,16.88
2019-01-29T09:09:00.243Z,16.88
2019-01-29T09:10:00.369Z,11.25
2019-01-29T09:11:00.253Z,11.25
2019-01-29T09:12:00.213Z,11.25
2019-01-29T09:13:00.209Z,11.25
2019-01-29T09:14:00.186Z,16.88
2019-01-29T09:15:00.266Z,16.88
2019-01-29T09:16:00.231Z,16.88
2019-01-29T09:17:00.180Z,16.88
2019-01-29T09:18:00.176Z,11.25
2019-01-29T09:19:00.135Z,11.25
2019-01-29T09:20:00.202Z,11.25
2019-01-29T09:21:00.134Z,11.25
2019-01-29T09:22:00.137Z,11.25
2019-01-29T09:23:00.096Z,11.25
2019-01-29T09:24:00.086Z,11.25
2019-01-29T09:25:00.223Z,11.25
2019-01-29T09:26:00.056Z,11.25
2019-01-29T09:27:00.156Z,11.25
2019-01-29T09:28:00.046Z,11.25
2019-01-29T09:29:00.040Z,11.25
2019-01-29T09:30:00.020Z,16.88
2019-01-29T09:31:00.000Z,22.50
2019-01-29T09:32:00.012Z,22.50
2019-01-29T09:32:59.984Z,22.50
2019-01-29T09:33:59.972Z,16.88
2019-01-29T09:34:59.965Z,16.88
2019-01-29T09:35:59.950Z,22.50
2019-01-29T09:36:59.968Z,22.50
2019-01-29T09:37:59.930Z,16.88
2019-01-29T09:38:59.918Z,16.88
2019-01-29T09:39:59.911Z,22.50
2019-01-29T09:40:59.905Z,28.12
2019-01-29T09:41:59.881Z,16.88
2019-01-29T09:42:59.903Z,28.12
2019-01-29T09:43:59.875Z,28.12
2019-01-29T09:44:59.850Z,22.50
2019-01-29T09:45:59.847Z,16.88
2019-01-29T09:46:59.848Z,28.12
2019-01-29T09:47:59.828Z,22.50
2019-01-29T09:48:59.809Z,16.88
2019-01-29T09:49:59.804Z,22.50
2019-01-29T09:50:59.780Z,16.88
2019-01-29T09:51:59.772Z,11.25
2019-01-29T09:52:59.782Z,16.88
2019-01-29T09:53:59.767Z,16.88
2019-01-29T09:54:59.748Z,11.25
2019-01-29T09:55:59.740Z,11.25
2019-01-29T09:56:59.746Z,16.88
2019-01-29T09:57:59.729Z,16.88
2019-01-29T09:58:59.706Z,11.25
2019-01-29T09:59:59.688Z,16.88
2019-01-29T10:00:59.684Z,11.25
2019-01-29T10:01:59.670Z,11.25
2019-01-29T10:02:59.691Z,22.50
2019-01-29T10:03:59.644Z,22.50
2019-01-29T10:04:59.625Z,22.50
2019-01-29T10:05:59.631Z,28.12
2019-01-29T10:06:59.616Z,28.12
2019-01-29T10:07:59.613Z,33.75
2019-01-29T10:08:59.585Z,39.38
2019-01-29T10:09:59.577Z,28.12
2019-01-29T10:10:59.565Z,39.38
2019-01-29T10:11:59.612Z,33.75
2019-01-29T10:12:59.602Z,28.12
2019-01-29T10:13:59.544Z,33.75
2019-01-29T10:14:59.525Z,33.75
2019-01-29T10:15:59.547Z,28.12
2019-01-29T10:16:59.505Z,28.12
2019-01-29T10:17:59.521Z,28.12
2019-01-29T10:18:59.509Z,28.12
2019-01-29T10:20:02.922Z,22.50
2019-01-29T10:20:59.569Z,22.50
2019-01-29T10:21:59.541Z,28.12
2019-01-29T10:22:59.563Z,22.50
2019-01-29T10:23:59.527Z,28.12
2019-01-29T10:24:59.513Z,22.50
2019-01-29T10:25:59.481Z,16.88
2019-01-29T10:26:59.427Z,22.50
2019-01-29T10:27:59.401Z,22.50
2019-01-29T10:28:59.431Z,22.50
2019-01-29T10:29:59.360Z,22.50
2019-01-29T10:30:59.379Z,22.50
2019-01-29T10:31:59.341Z,28.12
2019-01-29T10:32:59.332Z,22.50
2019-01-29T10:33:59.339Z,16.88
2019-01-29T10:34:59.311Z,16.88
2019-01-29T10:35:59.293Z,22.50
2019-01-29T10:36:59.296Z,22.50
2019-01-29T10:37:59.292Z,16.88
2019-01-29T10:38:59.265Z,16.88
2019-01-29T10:39:59.282Z,22.50
2019-01-29T10:40:59.240Z,22.50
2019-01-29T10:41:59.229Z,28.12
2019-01-29T10:42:59.295Z,28.12
2019-01-29T10:43:59.210Z,22.50
2019-01-29T10:44:59.216Z,22.50
2019-01-29T10:45:59.186Z,22.50
2019-01-29T10:46:59.186Z,22.50
2019-01-29T10:47:59.158Z,22.50
2019-01-29T10:48:59.161Z,22.50
2019-01-29T10:49:59.172Z,16.88
2019-01-29T10:50:59.145Z,16.88
2019-01-29T10:51:59.115Z,16.88
2019-01-29T10:52:59.137Z,22.50
2019-01-29T10:53:59.095Z,16.88
2019-01-29T10:54:59.203Z,16.88
2019-01-29T10:55:59.076Z,16.88
2019-01-29T10:56:59.083Z,22.50
2019-01-29T10:57:59.058Z,16.88
2019-01-29T10:58:59.058Z,16.88
2019-01-29T10:59:59.066Z,16.88
2019-01-29T11:00:59.043Z,22.50
2019-01-29T11:01:59.028Z,16.88
2019-01-29T11:02:59.009Z,16.88
2019-01-29T11:03:58.993Z,22.50
2019-01-29T11:04:58.978Z,22.50
2019-01-29T11:05:59.004Z,28.12
2019-01-29T11:06:58.950Z,28.12
2019-01-29T11:07:58.946Z,28.12
2019-01-29T11:08:58.935Z,28.12
2019-01-29T11:09:58.928Z,28.12
2019-01-29T11:10:58.936Z,16.88
2019-01-29T11:11:58.902Z,16.88
2019-01-29T11:12:58.888Z,22.50
2019-01-29T11:13:58.876Z,28.12
2019-01-29T11:14:58.864Z,28.12
2019-01-29T11:15:58.905Z,16.88
2019-01-29T11:16:58.856Z,22.50
2019-01-29T11:17:58.989Z,28.12
2019-01-29T11:19:03.366Z,22.50
2019-01-29T11:19:58.847Z,22.50
2019-01-29T11:20:58.823Z,22.50
2019-01-29T11:21:58.827Z,16.88
2019-01-29T11:22:58.793Z,22.50
2019-01-29T11:23:58.795Z,22.50
2019-01-29T11:24:58.766Z,22.50
2019-01-29T11:25:58.799Z,22.50
2019-01-29T11:26:58.748Z,22.50
2019-01-29T11:27:58.771Z,16.88
2019-01-29T11:28:58.719Z,16.88
2019-01-29T11:29:58.701Z,22.50
2019-01-29T11:30:58.722Z,22.50
2019-01-29T11:31:58.693Z,22.50
2019-01-29T11:32:58.683Z,22.50
2019-01-29T11:33:58.655Z,22.50
2019-01-29T11:34:58.663Z,16.88
2019-01-29T11:35:58.672Z,16.88
2019-01-29T11:36:58.629Z,16.88
2019-01-29T11:37:58.625Z,22.50
2019-01-29T11:38:58.659Z,22.50
2019-01-29T11:39:58.657Z,16.88
2019-01-29T11:40:58.653Z,16.88
2019-01-29T11:41:58.617Z,16.88
2019-01-29T11:42:58.575Z,16.88
2019-01-29T11:44:00.497Z,16.88
2019-01-29T11:44:58.584Z,22.50
2019-01-29T11:45:58.545Z,16.88
2019-01-29T11:46:58.525Z,16.88
2019-01-29T11:47:58.523Z,16.88
2019-01-29T11:48:58.491Z,22.50
2019-01-29T11:49:58.515Z,28.12
2019-01-29T11:50:58.470Z,28.12
2019-01-29T11:51:58.531Z,28.12
2019-01-29T11:52:58.459Z,22.50
2019-01-29T11:53:58.467Z,28.12
2019-01-29T11:54:58.447Z,22.50
2019-01-29T11:56:04.412Z,16.88
2019-01-29T11:56:59.453Z,16.88
2019-01-29T11:57:58.389Z,22.50
2019-01-29T11:58:58.388Z,28.12
2019-01-29T11:59:58.384Z,22.50
2019-01-29T12:00:58.370Z,22.50
2019-01-29T12:01:58.431Z,16.88
2019-01-29T12:02:58.349Z,28.12
2019-01-29T12:03:58.333Z,28.12
2019-01-29T12:04:58.329Z,22.50
2019-01-29T12:05:58.315Z,22.50
2019-01-29T12:06:58.342Z,22.50
2019-01-29T12:07:58.294Z,28.12
2019-01-29T12:08:58.294Z,33.75
2019-01-29T12:09:58.338Z,33.75
2019-01-29T12:10:58.269Z,33.75
2019-01-29T12:11:58.243Z,33.75
2019-01-29T12:12:58.246Z,28.12
2019-01-29T12:13:58.217Z,39.38
2019-01-29T12:14:58.228Z,33.75
2019-01-29T12:15:58.199Z,28.12
2019-01-29T12:16:58.194Z,28.12
2019-01-29T12:17:58.202Z,28.12
2019-01-29T12:18:58.389Z,28.12
2019-01-29T12:19:58.168Z,28.12
2019-01-29T12:20:58.151Z,28.12
2019-01-29T12:21:58.142Z,33.75
2019-01-29T12:22:58.149Z,33.75
2019-01-29T12:23:58.111Z,39.38
2019-01-29T12:24:58.110Z,39.38
2019-01-29T12:25:58.094Z,39.38
2019-01-29T12:26:58.084Z,39.38
2019-01-29T12:27:58.100Z,39.38
2019-01-29T12:28:58.056Z,39.38
2019-01-29T12:29:58.047Z,39.38
2019-01-29T12:30:58.029Z,39.38
2019-01-29T12:31:58.029Z,33.75
2019-01-29T12:32:58.022Z,33.75
2019-01-29T12:33:58.013Z,33.75
2019-01-29T12:34:58.001Z,39.38
2019-01-29T12:35:57.984Z,39.38
2019-01-29T12:36:57.976Z,45.00
2019-01-29T12:37:57.958Z,45.00
2019-01-29T12:38:57.977Z,39.38
2019-01-29T12:39:57.974Z,39.38
2019-01-29T12:40:57.925Z,39.38
2019-01-29T12:41:57.918Z,39.38
2019-01-29T12:42:57.909Z,33.75
2019-01-29T12:43:57.904Z,33.75
2019-01-29T12:44:57.887Z,33.75
2019-01-29T12:45:57.876Z,33.75
2019-01-29T12:46:57.849Z,39.38
2019-01-29T12:47:57.859Z,39.38
2019-01-29T12:48:57.858Z,39.38
2019-01-29T12:49:57.951Z,39.38
2019-01-29T12:50:57.812Z,39.38
2019-01-29T12:51:57.800Z,39.38
2019-01-29T12:52:57.797Z,39.38
2019-01-29T12:53:57.823Z,39.38
2019-01-29T12:54:57.779Z,39.38
2019-01-29T12:55:57.753Z,33.75
2019-01-29T12:56:57.751Z,28.12
2019-01-29T12:57:57.743Z,33.75
2019-01-29T12:58:57.726Z,33.75
2019-01-29T12:59:57.762Z,28.12
2019-01-29T13:00:57.708Z,28.12
2019-01-29T13:01:57.705Z,28.12
2019-01-29T13:02:57.683Z,33.75
2019-01-29T13:03:57.675Z,39.38
2019-01-29T13:04:57.681Z,45.00
2019-01-29T13:05:57.738Z,33.75
2019-01-29T13:06:57.641Z,28.12
2019-01-29T13:07:57.641Z,28.12